Time;durP1;ratioP1;P1;durP2;ratioP2;P2;SDS_P1;SDS_P2;PMS_P1;PMS_P2;Temp;Humidity;BMP_temperature;BMP_pressure;BME280_temperature;BME280_humidity;BME280_pressure;Samples;Min_cycle;Max_cycle;Signal;HPM_P1;HPM_P2
2023/07/11 00:00:54;;;;;;;4.38;2.78;;;;;;;;;;5081627;28;20044;-79
2023/07/11 00:03:21;;;;;;;4.38;2.58;;;;;;;;;;5081215;28;20082;-79
2023/07/11 00:06:04;;;;;;;3.92;2.60;;;;;;;;;;5081850;28;20052;-79
2023/07/11 00:08:32;;;;;;;6.32;2.45;;;;;;;;;;5081354;28;20271;-79
2023/07/11 00:10:59;;;;;;;5.22;2.35;;;;;;;;;;5081619;28;20091;-79
2023/07/11 00:13:25;;;;;;;6.05;2.53;;;;;;;;;;5081489;28;20067;-80
2023/07/11 00:16:01;;;;;;;7.05;2.90;;;;;;;;;;5081524;28;20395;-80
2023/07/11 00:18:28;;;;;;;6.47;2.60;;;;;;;;;;5081503;28;20079;-77
2023/07/11 00:20:55;;;;;;;6.13;2.58;;;;;;;;;;5081628;28;20115;-79
2023/07/11 00:23:23;;;;;;;5.78;2.50;;;;;;;;;;5080640;28;20044;-79
2023/07/11 00:25:50;;;;;;;4.63;2.45;;;;;;;;;;5081350;28;20058;-80
2023/07/11 00:28:16;;;;;;;5.60;2.40;;;;;;;;;;5081065;28;20058;-79
2023/07/11 00:30:43;;;;;;;7.90;2.33;;;;;;;;;;5081079;28;20044;-78
2023/07/11 00:33:11;;;;;;;3.78;2.17;;;;;;;;;;5081123;28;20082;-75
2023/07/11 00:35:38;;;;;;;5.35;2.25;;;;;;;;;;5081556;28;20365;-79
2023/07/11 00:38:05;;;;;;;5.85;2.17;;;;;;;;;;5080445;28;20052;-79
2023/07/11 00:40:32;;;;;;;5.93;2.03;;;;;;;;;;5081356;28;20075;-80
2023/07/11 00:43:00;;;;;;;7.32;2.33;;;;;;;;;;5080854;28;20044;-80
2023/07/11 00:45:49;;;;;;;7.32;2.30;;;;;;;;;;5080894;28;20231;-80
2023/07/11 00:48:19;;;;;;;7.78;2.38;;;;;;;;;;5080611;28;20051;-79
2023/07/11 00:50:46;;;;;;;5.17;2.03;;;;;;;;;;5080729;28;20050;-78
2023/07/11 00:53:13;;;;;;;5.50;2.47;;;;;;;;;;5080409;28;20418;-79
2023/07/11 00:55:42;;;;;;;8.32;2.55;;;;;;;;;;5080871;28;20087;-80
2023/07/11 00:58:09;;;;;;;4.80;2.35;;;;;;;;;;5080476;28;20347;-80
2023/07/11 01:00:35;;;;;;;7.60;2.45;;;;;;;;;;5081096;28;20111;-79
2023/07/11 01:03:02;;;;;;;6.40;2.25;;;;;;;;;;5080090;28;20048;-80
2023/07/11 01:05:29;;;;;;;6.88;2.50;;;;;;;;;;5080563;28;20056;-79
2023/07/11 01:07:56;;;;;;;5.25;2.25;;;;;;;;;;5080352;28;20236;-81
2023/07/11 01:10:22;;;;;;;7.38;2.70;;;;;;;;;;5080541;28;20116;-81
2023/07/11 01:12:49;;;;;;;8.95;2.88;;;;;;;;;;5079938;28;20244;-80
2023/07/11 01:15:16;;;;;;;5.05;2.25;;;;;;;;;;5080370;28;20045;-79
2023/07/11 01:17:43;;;;;;;6.47;2.38;;;;;;;;;;5080354;28;20075;-79
2023/07/11 01:20:10;;;;;;;9.52;2.80;;;;;;;;;;5080060;28;20052;-80
2023/07/11 01:22:38;;;;;;;8.18;2.63;;;;;;;;;;5080181;28;20326;-79
2023/07/11 01:25:11;;;;;;;4.22;2.22;;;;;;;;;;5079887;28;20052;-78
2023/07/11 01:27:41;;;;;;;4.68;2.20;;;;;;;;;;5080186;28;20052;-79
2023/07/11 01:30:10;;;;;;;9.63;2.97;;;;;;;;;;5079886;28;20120;-80
2023/07/11 01:32:37;;;;;;;7.28;2.25;;;;;;;;;;5080171;28;20056;-78
2023/07/11 01:35:05;;;;;;;7.50;2.10;;;;;;;;;;5078740;28;20067;-81
2023/07/11 01:37:32;;;;;;;5.78;1.92;;;;;;;;;;5079928;28;20044;-80
2023/07/11 01:39:58;;;;;;;6.65;2.42;;;;;;;;;;5079889;28;20080;-80
2023/07/11 01:42:26;;;;;;;4.78;2.10;;;;;;;;;;5080001;28;20045;-79
2023/07/11 01:44:53;;;;;;;5.68;2.65;;;;;;;;;;5079861;28;20048;-80
2023/07/11 01:47:20;;;;;;;5.50;2.20;;;;;;;;;;5080016;28;20044;-77
2023/07/11 01:49:47;;;;;;;6.32;2.58;;;;;;;;;;5080138;28;20072;-80
2023/07/11 01:52:21;;;;;;;7.88;2.35;;;;;;;;;;5079664;28;20060;-80
2023/07/11 01:54:49;;;;;;;6.68;2.72;;;;;;;;;;5079610;28;20052;-79
2023/07/11 01:57:16;;;;;;;6.60;2.28;;;;;;;;;;5079983;28;20052;-80
2023/07/11 01:59:42;;;;;;;4.70;2.20;;;;;;;;;;5079792;28;20050;-79
2023/07/11 02:02:10;;;;;;;6.60;2.70;;;;;;;;;;5079045;28;20045;-80
2023/07/11 02:04:37;;;;;;;9.60;2.47;;;;;;;;;;5079480;28;20127;-79
2023/07/11 02:07:05;;;;;;;8.82;2.75;;;;;;;;;;5079741;28;20112;-78
2023/07/11 02:09:32;;;;;;;6.53;2.53;;;;;;;;;;5079655;28;20056;-77
2023/07/11 02:11:59;;;;;;;5.50;2.60;;;;;;;;;;5079978;28;20115;-80
2023/07/11 02:14:25;;;;;;;7.85;2.40;;;;;;;;;;5079513;28;20036;-80
2023/07/11 02:16:52;;;;;;;5.32;2.25;;;;;;;;;;5079884;28;20048;-77
2023/07/11 02:19:21;;;;;;;5.35;2.35;;;;;;;;;;5079669;28;20053;-73
2023/07/11 02:21:48;;;;;;;5.22;2.47;;;;;;;;;;5080052;28;20114;-80
2023/07/11 02:24:16;;;;;;;6.55;2.58;;;;;;;;;;5079314;28;20426;-76
2023/07/11 02:26:44;;;;;;;7.47;2.80;;;;;;;;;;5083736;28;20344;-80
2023/07/11 02:29:11;;;;;;;8.60;2.38;;;;;;;;;;5083744;28;20107;-80
2023/07/11 02:31:38;;;;;;;6.20;2.45;;;;;;;;;;5083531;28;20299;-80
2023/07/11 02:34:05;;;;;;;4.88;2.15;;;;;;;;;;5082469;28;20059;-80
2023/07/11 02:36:32;;;;;;;6.40;2.42;;;;;;;;;;5082425;28;20282;-80
2023/07/11 02:38:59;;;;;;;7.63;2.70;;;;;;;;;;5083196;28;20053;-80
2023/07/11 02:41:26;;;;;;;7.97;2.80;;;;;;;;;;5083662;28;20048;-79
2023/07/11 02:43:53;;;;;;;6.43;2.63;;;;;;;;;;5083413;28;20050;-80
2023/07/11 02:46:20;;;;;;;8.65;2.20;;;;;;;;;;5082797;28;20053;-78
2023/07/11 02:48:47;;;;;;;6.63;2.47;;;;;;;;;;5083453;28;20112;-80
2023/07/11 02:51:14;;;;;;;7.15;2.50;;;;;;;;;;5083085;28;20044;-79
2023/07/11 02:53:41;;;;;;;9.80;2.67;;;;;;;;;;5083204;28;20048;-79
2023/07/11 02:56:08;;;;;;;6.75;2.60;;;;;;;;;;5082893;28;20049;-80
2023/07/11 02:58:34;;;;;;;4.65;2.15;;;;;;;;;;5083374;28;20341;-81
2023/07/11 03:01:02;;;;;;;4.40;2.10;;;;;;;;;;5082999;28;20228;-81
2023/07/11 03:03:30;;;;;;;4.18;2.30;;;;;;;;;;5082874;28;20253;-81
2023/07/11 03:05:57;;;;;;;6.80;2.53;;;;;;;;;;5082859;28;20056;-79
2023/07/11 03:08:24;;;;;;;11.27;2.80;;;;;;;;;;5082799;28;20044;-78
2023/07/11 03:10:51;;;;;;;5.80;2.70;;;;;;;;;;5082731;28;20045;-80
2023/07/11 03:13:18;;;;;;;10.60;2.63;;;;;;;;;;5083225;28;20051;-77
2023/07/11 03:15:45;;;;;;;6.30;2.35;;;;;;;;;;5082798;28;20049;-79
2023/07/11 03:18:13;;;;;;;5.63;2.40;;;;;;;;;;5082663;28;20051;-80
2023/07/11 03:20:41;;;;;;;8.43;2.38;;;;;;;;;;5082532;28;20389;-80
2023/07/11 03:23:11;;;;;;;7.68;2.38;;;;;;;;;;5082432;28;20044;-79
2023/07/11 03:25:38;;;;;;;8.57;2.72;;;;;;;;;;5082363;28;20057;-80
2023/07/11 03:28:05;;;;;;;5.90;2.40;;;;;;;;;;5082751;28;20228;-79
2023/07/11 03:30:33;;;;;;;4.07;2.08;;;;;;;;;;5082535;28;20044;-81
2023/07/11 03:33:00;;;;;;;6.30;2.50;;;;;;;;;;5082606;28;20071;-74
2023/07/11 03:35:26;;;;;;;6.45;2.40;;;;;;;;;;5081693;28;20045;-77
2023/07/11 03:37:53;;;;;;;6.22;2.40;;;;;;;;;;5082073;28;20390;-76
2023/07/11 03:40:20;;;;;;;6.18;2.58;;;;;;;;;;5082119;28;20122;-76
2023/07/11 03:42:46;;;;;;;4.05;2.25;;;;;;;;;;5082445;28;20072;-77
2023/07/11 03:45:14;;;;;;;7.53;2.47;;;;;;;;;;5081781;28;20349;-77
2023/07/11 03:47:41;;;;;;;9.45;2.50;;;;;;;;;;5082361;28;20044;-77
2023/07/11 03:50:08;;;;;;;7.20;2.58;;;;;;;;;;5082014;28;20087;-77
2023/07/11 03:52:35;;;;;;;4.65;2.25;;;;;;;;;;5081995;28;20116;-77
2023/07/11 03:55:02;;;;;;;8.50;2.30;;;;;;;;;;5082179;28;20094;-77
2023/07/11 03:57:28;;;;;;;7.53;2.40;;;;;;;;;;5081868;28;20045;-77
2023/07/11 03:59:55;;;;;;;8.50;2.53;;;;;;;;;;5081735;28;20044;-77
2023/07/11 04:02:22;;;;;;;3.53;2.17;;;;;;;;;;5081641;28;20295;-77
2023/07/11 04:04:49;;;;;;;7.28;2.45;;;;;;;;;;5081864;28;20082;-77
2023/07/11 04:07:15;;;;;;;9.70;2.55;;;;;;;;;;5081386;28;20139;-74
2023/07/11 04:09:42;;;;;;;8.50;2.47;;;;;;;;;;5081886;28;20071;-76
2023/07/11 04:12:09;;;;;;;6.18;2.30;;;;;;;;;;5081296;28;20044;-76
2023/07/11 04:14:37;;;;;;;4.38;2.15;;;;;;;;;;5081707;28;20052;-76
2023/07/11 04:17:03;;;;;;;9.45;2.53;;;;;;;;;;5081250;28;20332;-76
2023/07/11 04:19:30;;;;;;;4.78;2.30;;;;;;;;;;5081533;28;20090;-77
2023/07/11 04:21:57;;;;;;;5.97;2.47;;;;;;;;;;5081103;28;20048;-76
2023/07/11 04:24:23;;;;;;;6.47;2.65;;;;;;;;;;5081496;28;20051;-77
2023/07/11 04:26:50;;;;;;;6.60;2.60;;;;;;;;;;5079532;28;20044;-77
2023/07/11 04:29:17;;;;;;;5.00;2.20;;;;;;;;;;5081261;28;20271;-77
2023/07/11 04:31:43;;;;;;;4.20;1.95;;;;;;;;;;5081193;28;20383;-75
2023/07/11 04:34:10;;;;;;;8.40;2.42;;;;;;;;;;5081143;28;20332;-77
2023/07/11 04:36:37;;;;;;;5.55;2.25;;;;;;;;;;5076488;28;20083;-76
2023/07/11 04:39:04;;;;;;;7.55;2.33;;;;;;;;;;5081108;28;20067;-77
2023/07/11 04:41:30;;;;;;;5.32;2.17;;;;;;;;;;5080964;28;20100;-77
2023/07/11 04:43:57;;;;;;;6.32;2.45;;;;;;;;;;5080946;28;20127;-77
2023/07/11 04:46:25;;;;;;;5.97;2.50;;;;;;;;;;5080802;28;20080;-77
2023/07/11 04:48:52;;;;;;;4.70;2.10;;;;;;;;;;5080222;28;20048;-77
2023/07/11 04:51:19;;;;;;;4.93;2.33;;;;;;;;;;5079571;28;20430;-77
2023/07/11 04:53:45;;;;;;;7.07;2.30;;;;;;;;;;5080573;28;20107;-78
2023/07/11 04:56:13;;;;;;;9.13;2.60;;;;;;;;;;5080443;28;20044;-79
2023/07/11 04:58:40;;;;;;;4.03;2.00;;;;;;;;;;5080933;28;20044;-75
2023/07/11 05:01:12;;;;;;;6.53;2.28;;;;;;;;;;5079802;28;20090;-78
2023/07/11 05:03:39;;;;;;;6.07;2.15;;;;;;;;;;5080598;28;20052;-75
2023/07/11 05:06:07;;;;;;;7.28;2.33;;;;;;;;;;5080251;28;20158;-78
2023/07/11 05:08:35;;;;;;;7.20;2.13;;;;;;;;;;5080167;28;20059;-73
2023/07/11 05:11:04;;;;;;;6.97;2.30;;;;;;;;;;5080225;28;20051;-78
2023/07/11 05:13:33;;;;;;;5.80;2.40;;;;;;;;;;5076890;28;20047;-77
2023/07/11 05:16:01;;;;;;;5.45;2.10;;;;;;;;;;5073186;28;20055;-87
2023/07/11 05:18:29;;;;;;;5.38;2.30;;;;;;;;;;5070481;28;20052;-82
2023/07/11 05:20:57;;;;;;;5.28;2.42;;;;;;;;;;5072450;28;20052;-83
2023/07/11 05:23:26;;;;;;;4.90;2.40;;;;;;;;;;5069627;28;20052;-83
2023/07/11 05:25:54;;;;;;;6.40;2.42;;;;;;;;;;5070499;28;20109;-77
2023/07/11 05:28:22;;;;;;;6.13;1.98;;;;;;;;;;5071324;28;20485;-81
2023/07/11 05:30:48;;;;;;;6.82;2.15;;;;;;;;;;5073054;28;20047;-83
2023/07/11 05:33:15;;;;;;;9.70;2.03;;;;;;;;;;5069738;28;20535;-78
2023/07/11 05:35:49;;;;;;;7.97;2.40;;;;;;;;;;5076757;28;20438;-79
2023/07/11 05:38:16;;;;;;;11.05;2.72;;;;;;;;;;5069138;28;20074;-83
2023/07/11 05:40:43;;;;;;;6.40;2.33;;;;;;;;;;5077272;28;20047;-86
2023/07/11 05:43:09;;;;;;;6.57;2.30;;;;;;;;;;5080102;28;20040;-89
2023/07/11 05:45:36;;;;;;;9.93;1.95;;;;;;;;;;5075130;28;20051;-86
2023/07/11 05:48:03;;;;;;;5.25;2.25;;;;;;;;;;5069666;28;20055;-86
2023/07/11 05:50:30;;;;;;;7.22;2.55;;;;;;;;;;5070069;28;20538;-89
2023/07/11 05:52:56;;;;;;;7.55;2.65;;;;;;;;;;5068453;28;20405;-87
2023/07/11 05:55:23;;;;;;;6.97;2.28;;;;;;;;;;5072122;28;20052;-87
2023/07/11 05:57:49;;;;;;;7.30;2.20;;;;;;;;;;5078219;28;20496;-89
2023/07/11 06:00:16;;;;;;;4.18;1.95;;;;;;;;;;5077328;28;20053;-84
2023/07/11 06:02:43;;;;;;;5.35;2.15;;;;;;;;;;5071887;28;20521;-92
2023/07/11 06:05:10;;;;;;;5.95;2.30;;;;;;;;;;5070624;28;20471;-92
2023/07/11 06:07:38;;;;;;;7.32;2.15;;;;;;;;;;5070446;28;20671;-90
2023/07/11 06:10:05;;;;;;;7.35;2.25;;;;;;;;;;5074800;28;20484;-92
2023/07/11 06:12:33;;;;;;;5.10;2.55;;;;;;;;;;5072912;28;20052;-88
2023/07/11 06:15:00;;;;;;;11.02;2.70;;;;;;;;;;5069657;28;20090;-91
2023/07/11 06:17:27;;;;;;;3.90;2.20;;;;;;;;;;5073044;28;20044;-80
2023/07/11 06:19:54;;;;;;;7.85;3.00;;;;;;;;;;5072313;28;20050;-86
2023/07/11 06:22:20;;;;;;;6.18;2.53;;;;;;;;;;5077897;28;20047;-86
2023/07/11 06:24:47;;;;;;;8.85;1.90;;;;;;;;;;5068867;28;20045;-78
2023/07/11 06:27:13;;;;;;;6.88;2.17;;;;;;;;;;5073723;28;20057;-80
2023/07/11 06:29:40;;;;;;;6.68;2.45;;;;;;;;;;5071358;28;20049;-78
2023/07/11 06:32:07;;;;;;;7.65;2.47;;;;;;;;;;5073829;28;20049;-80
2023/07/11 06:34:34;;;;;;;6.15;2.33;;;;;;;;;;5068213;28;20110;-79
2023/07/11 06:37:00;;;;;;;5.05;2.28;;;;;;;;;;5075955;28;20047;-80
2023/07/11 06:39:27;;;;;;;5.50;2.42;;;;;;;;;;5075809;28;20055;-79
2023/07/11 06:41:53;;;;;;;6.60;2.30;;;;;;;;;;5073016;28;20082;-81
2023/07/11 06:44:21;;;;;;;6.03;2.78;;;;;;;;;;5078575;28;20044;-82
2023/07/11 06:46:47;;;;;;;5.65;2.53;;;;;;;;;;5079129;28;20060;-82
2023/07/11 06:49:14;;;;;;;5.03;2.33;;;;;;;;;;5076932;28;20052;-75
2023/07/11 06:51:41;;;;;;;6.20;2.53;;;;;;;;;;5073219;28;20044;-83
2023/07/11 06:54:08;;;;;;;4.05;2.10;;;;;;;;;;5071960;28;20106;-80
2023/07/11 06:56:35;;;;;;;5.72;2.17;;;;;;;;;;5069431;28;20121;-80
2023/07/11 06:59:02;;;;;;;5.85;2.22;;;;;;;;;;5074595;28;20059;-80
2023/07/11 07:01:29;;;;;;;5.63;2.20;;;;;;;;;;5064104;28;20052;-80
2023/07/11 07:04:04;;;;;;;6.30;2.50;;;;;;;;;;5073783;28;20131;-81
2023/07/11 07:06:32;;;;;;;4.07;2.13;;;;;;;;;;5073490;28;20048;-79
2023/07/11 07:09:00;;;;;;;3.58;2.15;;;;;;;;;;5075388;28;20327;-80
2023/07/11 07:11:27;;;;;;;6.82;2.05;;;;;;;;;;5076739;28;20145;-82
2023/07/11 07:13:54;;;;;;;6.55;2.40;;;;;;;;;;5081902;28;20056;-74
2023/07/11 07:16:33;;;;;;;10.52;2.10;;;;;;;;;;5076982;28;20132;-82
2023/07/11 07:19:00;;;;;;;6.60;2.20;;;;;;;;;;5070737;28;20040;-84
2023/07/11 07:21:26;;;;;;;7.47;2.33;;;;;;;;;;5070862;28;20045;-87
2023/07/11 07:23:53;;;;;;;8.18;2.40;;;;;;;;;;5070554;28;20044;-82
2023/07/11 07:26:20;;;;;;;10.13;2.70;;;;;;;;;;5071024;28;20048;-83
2023/07/11 07:28:47;;;;;;;13.43;2.60;;;;;;;;;;5071207;28;20045;-81
2023/07/11 07:31:13;;;;;;;9.88;2.50;;;;;;;;;;5070954;28;20044;-82
2023/07/11 07:33:41;;;;;;;6.78;2.35;;;;;;;;;;5070330;28;20051;-82
2023/07/11 07:36:09;;;;;;;9.82;2.53;;;;;;;;;;5070780;28;20052;-84
2023/07/11 07:38:36;;;;;;;8.88;2.53;;;;;;;;;;5066818;28;20048;-76
2023/07/11 07:41:07;;;;;;;8.65;2.72;;;;;;;;;;5064248;28;20052;-78
2023/07/11 07:43:43;;;;;;;8.00;2.70;;;;;;;;;;5075398;28;20056;-79
2023/07/11 07:46:13;;;;;;;9.70;2.30;;;;;;;;;;5067767;28;20052;-80
2023/07/11 07:48:40;;;;;;;12.05;2.45;;;;;;;;;;5069003;28;20041;-82
2023/07/11 07:51:11;;;;;;;10.05;2.95;;;;;;;;;;5069966;28;20048;-79
2023/07/11 07:53:38;;;;;;;7.25;2.75;;;;;;;;;;5070758;28;20041;-78
2023/07/11 07:56:08;;;;;;;7.35;3.03;;;;;;;;;;5071984;28;20444;-83
2023/07/11 07:58:36;;;;;;;6.65;2.75;;;;;;;;;;5069026;28;20133;-79
2023/07/11 08:01:11;;;;;;;10.13;3.35;;;;;;;;;;5056651;28;20559;-81
2023/07/11 08:03:39;;;;;;;9.32;2.95;;;;;;;;;;5060744;28;20064;-80
2023/07/11 08:06:07;;;;;;;7.05;2.60;;;;;;;;;;5063921;28;20091;-82
2023/07/11 08:08:43;;;;;;;13.10;3.17;;;;;;;;;;5062029;28;20667;-78
2023/07/11 08:11:11;;;;;;;6.97;2.60;;;;;;;;;;5067355;28;20718;-83
2023/07/11 08:13:39;;;;;;;5.68;2.50;;;;;;;;;;5065784;28;20102;-82
2023/07/11 08:16:08;;;;;;;9.63;2.90;;;;;;;;;;5069771;28;20471;-81
2023/07/11 08:18:55;;;;;;;10.80;2.85;;;;;;;;;;5079723;28;20209;-85
2023/07/11 08:21:23;;;;;;;6.05;2.42;;;;;;;;;;5078447;28;20051;-79
2023/07/11 08:23:50;;;;;;;9.65;2.90;;;;;;;;;;5080475;28;20068;-76
2023/07/11 08:26:17;;;;;;;8.77;2.53;;;;;;;;;;5066896;28;20424;-79
2023/07/11 08:28:43;;;;;;;7.25;2.80;;;;;;;;;;5075870;28;20079;-82
2023/07/11 08:31:10;;;;;;;9.43;2.80;;;;;;;;;;5059555;28;20063;-78
2023/07/11 08:33:37;;;;;;;8.25;2.85;;;;;;;;;;5067103;28;20048;-79
2023/07/11 08:36:04;;;;;;;10.95;2.63;;;;;;;;;;5073440;28;20041;-79
2023/07/11 08:38:31;;;;;;;14.18;2.72;;;;;;;;;;5060194;28;20047;-77
2023/07/11 08:41:07;;;;;;;11.18;2.55;;;;;;;;;;5070180;28;20044;-79
2023/07/11 08:43:34;;;;;;;17.13;2.75;;;;;;;;;;5080982;28;20124;-78
2023/07/11 08:46:07;;;;;;;4.95;2.28;;;;;;;;;;5080205;28;20605;-77
2023/07/11 08:48:45;;;;;;;10.43;2.75;;;;;;;;;;5079635;28;20063;-77
2023/07/11 08:51:32;;;;;;;9.38;2.58;;;;;;;;;;5080414;28;20075;-77
2023/07/11 08:54:15;;;;;;;9.77;2.35;;;;;;;;;;5075639;28;20049;-79
2023/07/11 08:56:45;;;;;;;13.73;2.92;;;;;;;;;;5076313;28;20055;-79
2023/07/11 08:59:43;;;;;;;10.25;2.35;;;;;;;;;;5074992;28;20336;-79
2023/07/11 09:02:10;;;;;;;8.60;2.30;;;;;;;;;;5077944;28;20048;-79
2023/07/11 09:04:47;;;;;;;12.50;2.65;;;;;;;;;;5074182;28;20067;-79
2023/07/11 09:07:41;;;;;;;10.98;2.85;;;;;;;;;;5070129;28;20476;-77
2023/07/11 09:10:29;;;;;;;13.15;2.70;;;;;;;;;;5074615;28;20048;-87
2023/07/11 09:13:31;;;;;;;8.02;2.05;;;;;;;;;;5080694;28;20146;-77
2023/07/11 09:16:12;;;;;;;10.82;2.92;;;;;;;;;;5080713;28;20051;-82
2023/07/11 09:18:57;;;;;;;12.38;2.83;;;;;;;;;;5073783;28;20111;-82
2023/07/11 09:21:38;;;;;;;10.43;2.70;;;;;;;;;;5076727;28;20236;-80
2023/07/11 09:24:31;;;;;;;6.47;2.58;;;;;;;;;;5078968;28;20059;-82
2023/07/11 09:27:12;;;;;;;11.30;2.28;;;;;;;;;;5079310;28;20048;-76
2023/07/11 09:29:41;;;;;;;7.97;2.60;;;;;;;;;;5078914;28;20103;-77
2023/07/11 09:32:09;;;;;;;6.60;2.70;;;;;;;;;;5078813;28;20048;-78
2023/07/11 09:34:44;;;;;;;6.40;2.63;;;;;;;;;;5076676;28;20108;-78
2023/07/11 09:37:43;;;;;;;13.20;3.42;;;;;;;;;;5073137;28;20494;-77
2023/07/11 09:40:35;;;;;;;10.05;2.45;;;;;;;;;;5077731;28;20062;-77
2023/07/11 09:43:04;;;;;;;15.68;2.90;;;;;;;;;;5080597;28;20048;-84
2023/07/11 09:45:36;;;;;;;5.95;2.40;;;;;;;;;;5075756;28;20129;-77
2023/07/11 09:48:16;;;;;;;10.27;2.70;;;;;;;;;;5076904;28;20090;-79
2023/07/11 09:50:51;;;;;;;9.75;2.90;;;;;;;;;;5078873;28;20056;-77
2023/07/11 09:53:43;;;;;;;10.60;2.55;;;;;;;;;;5079576;28;20086;-76
2023/07/11 09:56:17;;;;;;;7.82;2.45;;;;;;;;;;5078307;28;20505;-76
2023/07/11 09:58:58;;;;;;;8.60;2.90;;;;;;;;;;5079854;28;20362;-79
2023/07/11 10:01:33;;;;;;;11.38;3.47;;;;;;;;;;5079923;28;20055;-78
2023/07/11 10:04:01;;;;;;;8.20;3.13;;;;;;;;;;5079977;28;20056;-77
2023/07/11 10:06:37;;;;;;;12.63;3.38;;;;;;;;;;5080507;28;20071;-76
2023/07/11 10:09:17;;;;;;;9.73;2.88;;;;;;;;;;5080168;28;20045;-77
2023/07/11 10:11:51;;;;;;;7.20;2.70;;;;;;;;;;5079973;28;20086;-77
2023/07/11 10:14:23;;;;;;;8.10;2.90;;;;;;;;;;5078970;28;20104;-77
2023/07/11 10:16:50;;;;;;;10.98;3.20;;;;;;;;;;5079977;28;20102;-79
2023/07/11 10:19:19;;;;;;;10.90;3.25;;;;;;;;;;5080046;28;20049;-80
2023/07/11 10:21:50;;;;;;;7.95;2.78;;;;;;;;;;5080017;28;20348;-79
2023/07/11 10:24:21;;;;;;;9.15;3.38;;;;;;;;;;5079959;28;20056;-73
2023/07/11 10:26:56;;;;;;;8.60;3.08;;;;;;;;;;5079744;28;20048;-78
2023/07/11 10:29:25;;;;;;;11.68;3.30;;;;;;;;;;5079417;28;20045;-77
2023/07/11 10:31:58;;;;;;;7.75;2.97;;;;;;;;;;5079653;28;20090;-78
2023/07/11 10:34:47;;;;;;;15.00;4.07;;;;;;;;;;5079719;28;20044;-77
2023/07/11 10:37:32;;;;;;;10.88;3.67;;;;;;;;;;5079206;28;20052;-79
2023/07/11 10:40:11;;;;;;;11.57;3.72;;;;;;;;;;5074020;28;20048;-77
2023/07/11 10:42:43;;;;;;;12.60;3.28;;;;;;;;;;5066979;28;20048;-86
2023/07/11 10:45:20;;;;;;;9.93;3.70;;;;;;;;;;5067958;28;20049;-83
2023/07/11 10:48:08;;;;;;;10.38;3.40;;;;;;;;;;5075731;28;20119;-84
2023/07/11 10:50:42;;;;;;;11.48;3.45;;;;;;;;;;5070939;28;20044;-85
2023/07/11 10:53:43;;;;;;;9.73;3.20;;;;;;;;;;5073647;28;20044;-84
2023/07/11 10:56:34;;;;;;;10.15;3.17;;;;;;;;;;5083102;28;20115;-76
2023/07/11 10:59:01;;;;;;;7.40;3.92;;;;;;;;;;5083113;28;20071;-81
2023/07/11 11:01:36;;;;;;;7.78;2.72;;;;;;;;;;5083052;28;20329;-84
2023/07/11 11:04:15;;;;;;;23.55;3.55;;;;;;;;;;5082520;28;20056;-83
2023/07/11 11:07:11;;;;;;;8.88;3.22;;;;;;;;;;5081868;28;20480;-82
2023/07/11 11:09:46;;;;;;;12.85;3.78;;;;;;;;;;5059631;28;20044;-83
2023/07/11 11:12:35;;;;;;;8.20;3.10;;;;;;;;;;5081547;28;20112;-84
2023/07/11 11:15:10;;;;;;;13.27;3.13;;;;;;;;;;5073466;28;20060;-80
2023/07/11 11:17:52;;;;;;;9.73;3.30;;;;;;;;;;5052808;28;20127;-85
2023/07/11 11:20:35;;;;;;;12.45;3.42;;;;;;;;;;5057685;28;20326;-84
2023/07/11 11:23:28;;;;;;;8.68;3.10;;;;;;;;;;5058041;28;20053;-76
2023/07/11 11:26:03;;;;;;;6.50;2.67;;;;;;;;;;5080549;28;20056;-82
2023/07/11 11:28:51;;;;;;;10.40;2.90;;;;;;;;;;5074317;28;20512;-83
2023/07/11 11:31:18;;;;;;;9.07;3.35;;;;;;;;;;5070587;28;20045;-84
2023/07/11 11:33:52;;;;;;;11.27;3.45;;;;;;;;;;5070111;28;20053;-84
2023/07/11 11:36:35;;;;;;;8.80;3.33;;;;;;;;;;5070370;28;20087;-85
2023/07/11 11:39:23;;;;;;;8.98;3.22;;;;;;;;;;5072435;28;20639;-85
2023/07/11 11:41:57;;;;;;;13.05;3.40;;;;;;;;;;5070483;28;20072;-83
2023/07/11 11:44:39;;;;;;;9.82;3.33;;;;;;;;;;5070616;28;20063;-76
2023/07/11 11:47:10;;;;;;;11.13;3.15;;;;;;;;;;5068260;28;20068;-72
2023/07/11 11:49:58;;;;;;;10.77;3.20;;;;;;;;;;5077525;28;20040;-73
2023/07/11 11:52:34;;;;;;;11.43;3.40;;;;;;;;;;5075336;28;20725;-72
2023/07/11 11:55:39;;;;;;;10.10;3.10;;;;;;;;;;5070113;28;20053;-74
2023/07/11 11:58:15;;;;;;;7.55;3.28;;;;;;;;;;5070360;28;20045;-72
2023/07/11 12:00:50;;;;;;;6.20;2.75;;;;;;;;;;5070156;28;20498;-75
2023/07/11 12:03:21;;;;;;;6.32;2.65;;;;;;;;;;5070093;28;20069;-80
2023/07/11 12:05:50;;;;;;;14.75;3.88;;;;;;;;;;5074786;28;20051;-78
2023/07/11 12:08:35;;;;;;;16.45;4.45;;;;;;;;;;5074808;28;20052;-81
2023/07/11 12:11:07;;;;;;;8.27;3.33;;;;;;;;;;5069321;28;20500;-81
2023/07/11 12:13:37;;;;;;;12.20;3.15;;;;;;;;;;5072791;28;20141;-81
2023/07/11 12:16:20;;;;;;;10.50;4.97;;;;;;;;;;5070975;28;20056;-79
2023/07/11 12:19:30;;;;;;;9.45;3.25;;;;;;;;;;5069823;28;20532;-83
2023/07/11 12:22:05;;;;;;;9.63;3.53;;;;;;;;;;5069606;28;20049;-79
2023/07/11 12:24:31;;;;;;;7.43;3.22;;;;;;;;;;5067854;28;20083;-79
2023/07/11 12:27:30;;;;;;;8.45;2.95;;;;;;;;;;5064719;28;20540;-76
2023/07/11 12:29:59;;;;;;;7.80;2.95;;;;;;;;;;5064123;28;20049;-81
2023/07/11 12:32:32;;;;;;;7.60;2.90;;;;;;;;;;5063435;28;20056;-80
2023/07/11 12:35:05;;;;;;;12.80;2.95;;;;;;;;;;5064323;28;20048;-80
2023/07/11 12:37:40;;;;;;;9.65;3.13;;;;;;;;;;5063172;28;20062;-81
2023/07/11 12:40:46;;;;;;;7.70;3.17;;;;;;;;;;5063734;28;20063;-81
2023/07/11 12:43:25;;;;;;;9.93;3.30;;;;;;;;;;5064348;28;20544;-80
2023/07/11 12:45:59;;;;;;;8.95;3.08;;;;;;;;;;5063943;28;20135;-90
2023/07/11 12:48:32;;;;;;;6.43;3.10;;;;;;;;;;5064544;28;20058;-78
2023/07/11 12:51:24;;;;;;;14.82;3.35;;;;;;;;;;5067524;28;20061;-78
2023/07/11 12:54:01;;;;;;;9.32;3.20;;;;;;;;;;5068196;28;20058;-76
2023/07/11 12:56:29;;;;;;;11.95;3.15;;;;;;;;;;5065466;28;20048;-80
2023/07/11 12:58:55;;;;;;;11.57;3.35;;;;;;;;;;5069585;28;20059;-80
2023/07/11 13:01:23;;;;;;;9.27;3.45;;;;;;;;;;5071680;28;20332;-81
2023/07/11 13:03:50;;;;;;;10.68;3.20;;;;;;;;;;5075285;28;20056;-83
2023/07/11 13:06:23;;;;;;;8.38;3.30;;;;;;;;;;5078560;28;20128;-76
2023/07/11 13:08:50;;;;;;;10.00;3.00;;;;;;;;;;5077909;28;20048;-84
2023/07/11 13:11:21;;;;;;;8.13;3.13;;;;;;;;;;5078728;28;20079;-84
2023/07/11 13:13:48;;;;;;;8.85;2.95;;;;;;;;;;5076244;28;20115;-86
2023/07/11 13:16:16;;;;;;;5.93;2.88;;;;;;;;;;5078652;28;20079;-80
2023/07/11 13:18:45;;;;;;;7.38;2.78;;;;;;;;;;5077928;28;20121;-84
2023/07/11 13:21:13;;;;;;;11.05;3.28;;;;;;;;;;5076316;28;20052;-83
2023/07/11 13:23:43;;;;;;;13.00;3.78;;;;;;;;;;5073354;28;20053;-76
2023/07/11 13:26:19;;;;;;;5.78;2.75;;;;;;;;;;5078049;28;20115;-79
2023/07/11 13:28:55;;;;;;;10.93;3.38;;;;;;;;;;5073925;28;20052;-79
2023/07/11 13:31:25;;;;;;;11.57;3.63;;;;;;;;;;5077187;28;20090;-76
2023/07/11 13:34:00;;;;;;;8.75;3.15;;;;;;;;;;5077542;28;20060;-79
2023/07/11 13:36:30;;;;;;;10.73;3.30;;;;;;;;;;5077440;28;20083;-78
2023/07/11 13:39:02;;;;;;;6.60;2.97;;;;;;;;;;5077412;28;20446;-81
2023/07/11 13:41:35;;;;;;;9.38;3.03;;;;;;;;;;5077801;28;20052;-81
2023/07/11 13:44:24;;;;;;;11.80;3.47;;;;;;;;;;5067727;28;20048;-82
2023/07/11 13:46:51;;;;;;;5.85;3.33;;;;;;;;;;5070002;28;20044;-80
2023/07/11 13:49:33;;;;;;;6.55;3.17;;;;;;;;;;5073805;28;20281;-76
2023/07/11 13:52:02;;;;;;;7.07;3.70;;;;;;;;;;5073274;28;20391;-79
2023/07/11 13:54:35;;;;;;;12.20;4.32;;;;;;;;;;5071779;28;20328;-79
2023/07/11 13:57:03;;;;;;;7.15;3.15;;;;;;;;;;5074426;28;20119;-80
2023/07/11 13:59:31;;;;;;;6.75;2.92;;;;;;;;;;5074760;28;20084;-75
2023/07/11 14:02:01;;;;;;;6.47;2.75;;;;;;;;;;5074500;28;20102;-80
2023/07/11 14:04:34;;;;;;;6.03;2.90;;;;;;;;;;5073889;28;20274;-77
2023/07/11 14:07:01;;;;;;;6.07;3.17;;;;;;;;;;5075180;28;20111;-78
2023/07/11 14:09:28;;;;;;;6.32;2.83;;;;;;;;;;5076196;28;21161;-77
2023/07/11 14:11:56;;;;;;;7.88;3.20;;;;;;;;;;5076271;28;20045;-81
2023/07/11 14:14:25;;;;;;;7.18;3.05;;;;;;;;;;5076927;28;20348;-83
2023/07/11 14:17:13;;;;;;;8.15;3.30;;;;;;;;;;5069493;28;20381;-76
2023/07/11 14:19:39;;;;;;;5.78;2.90;;;;;;;;;;5076151;28;20048;-78
2023/07/11 14:22:13;;;;;;;7.78;3.20;;;;;;;;;;5081689;28;20098;-80
2023/07/11 14:24:45;;;;;;;7.68;3.15;;;;;;;;;;5078271;28;20091;-79
2023/07/11 14:27:16;;;;;;;4.63;3.00;;;;;;;;;;5092426;28;20048;-86
2023/07/11 14:29:46;;;;;;;5.88;3.00;;;;;;;;;;5080446;28;20052;-81
2023/07/11 14:32:19;;;;;;;11.50;3.17;;;;;;;;;;5081508;28;20045;-84
2023/07/11 14:34:46;;;;;;;6.85;3.38;;;;;;;;;;5072225;28;20041;-80
2023/07/11 14:37:17;;;;;;;5.15;2.88;;;;;;;;;;5084784;28;20058;-78
2023/07/11 14:39:45;;;;;;;8.10;2.67;;;;;;;;;;5071105;28;20476;-77
2023/07/11 14:42:28;;;;;;;4.80;2.70;;;;;;;;;;5071552;28;20117;-79
2023/07/11 14:44:54;;;;;;;4.15;2.50;;;;;;;;;;5089056;28;20661;-80
2023/07/11 14:47:22;;;;;;;5.85;2.70;;;;;;;;;;5077227;28;20048;-82
2023/07/11 14:49:48;;;;;;;8.13;2.50;;;;;;;;;;5078437;28;20052;-81
2023/07/11 14:52:18;;;;;;;7.70;3.03;;;;;;;;;;5078416;28;20673;-80
2023/07/11 14:54:45;;;;;;;3.90;2.63;;;;;;;;;;5072603;28;20105;-79
2023/07/11 14:57:31;;;;;;;5.05;2.65;;;;;;;;;;5077677;28;20037;-78
2023/07/11 15:00:03;;;;;;;4.45;2.78;;;;;;;;;;5080054;28;20420;-79
2023/07/11 15:02:36;;;;;;;5.20;3.15;;;;;;;;;;5070762;28;20048;-78
2023/07/11 15:05:13;;;;;;;5.25;3.00;;;;;;;;;;5073163;28;20045;-80